sensor_id;sensor_type;location;lat;lon;timestamp;P1;durP1;ratioP1;P2;durP2;ratioP2
13951;SDS011;39535;52.192;9.886;2024-01-15T00:00:45;15.73;;;13.90;;
13951;SDS011;39535;52.192;9.886;2024-01-15T00:03:11;14.63;;;13.17;;
13951;SDS011;39535;52.192;9.886;2024-01-15T00:05:38;13.53;;;12.13;;
13951;SDS011;39535;52.192;9.886;2024-01-15T00:08:04;14.73;;;13.33;;
13951;SDS011;39535;52.192;9.886;2024-01-15T00:10:31;14.87;;;13.33;;
13951;SDS011;39535;52.192;9.886;2024-01-15T00:12:57;14.73;;;12.03;;
13951;SDS011;39535;52.192;9.886;2024-01-15T00:15:23;17.10;;;13.43;;
13951;SDS011;39535;52.192;9.886;2024-01-15T00:17:51;16.87;;;14.13;;
13951;SDS011;39535;52.192;9.886;2024-01-15T00:20:17;14.47;;;12.83;;
13951;SDS011;39535;52.192;9.886;2024-01-15T00:22:44;15.20;;;13.23;;
13951;SDS011;39535;52.192;9.886;2024-01-15T00:25:10;14.53;;;13.03;;
13951;SDS011;39535;52.192;9.886;2024-01-15T00:27:37;13.30;;;12.07;;
13951;SDS011;39535;52.192;9.886;2024-01-15T00:30:03;14.47;;;13.07;;
13951;SDS011;39535;52.192;9.886;2024-01-15T00:32:30;12.07;;;10.97;;
13951;SDS011;39535;52.192;9.886;2024-01-15T00:34:58;11.17;;;10.13;;
13951;SDS011;39535;52.192;9.886;2024-01-15T00:37:24;10.43;;;9.43;;
13951;SDS011;39535;52.192;9.886;2024-01-15T00:39:51;9.60;;;8.60;;
13951;SDS011;39535;52.192;9.886;2024-01-15T00:42:17;9.20;;;8.30;;
13951;SDS011;39535;52.192;9.886;2024-01-15T00:44:43;10.27;;;9.37;;
13951;SDS011;39535;52.192;9.886;2024-01-15T00:47:10;8.90;;;8.10;;
13951;SDS011;39535;52.192;9.886;2024-01-15T00:49:36;8.53;;;7.70;;
13951;SDS011;39535;52.192;9.886;2024-01-15T00:52:06;9.43;;;8.63;;
13951;SDS011;39535;52.192;9.886;2024-01-15T00:54:34;9.97;;;8.30;;
13951;SDS011;39535;52.192;9.886;2024-01-15T00:57:00;9.83;;;8.93;;
13951;SDS011;39535;52.192;9.886;2024-01-15T00:59:27;10.00;;;9.10;;
13951;SDS011;39535;52.192;9.886;2024-01-15T01:01:53;9.83;;;8.77;;
13951;SDS011;39535;52.192;9.886;2024-01-15T01:04:20;8.87;;;7.97;;
13951;SDS011;39535;52.192;9.886;2024-01-15T01:06:46;8.87;;;7.80;;
13951;SDS011;39535;52.192;9.886;2024-01-15T01:09:14;9.17;;;8.27;;
13951;SDS011;39535;52.192;9.886;2024-01-15T01:11:40;8.40;;;7.57;;
13951;SDS011;39535;52.192;9.886;2024-01-15T01:14:07;8.43;;;7.63;;
13951;SDS011;39535;52.192;9.886;2024-01-15T01:16:33;7.40;;;6.80;;
13951;SDS011;39535;52.192;9.886;2024-01-15T01:19:03;7.33;;;6.73;;
13951;SDS011;39535;52.192;9.886;2024-01-15T01:21:30;6.50;;;5.90;;
13951;SDS011;39535;52.192;9.886;2024-01-15T01:23:56;7.87;;;5.63;;
13951;SDS011;39535;52.192;9.886;2024-01-15T01:26:24;6.60;;;5.23;;
13951;SDS011;39535;52.192;9.886;2024-01-15T01:28:51;5.77;;;5.00;;
13951;SDS011;39535;52.192;9.886;2024-01-15T01:31:17;8.27;;;5.17;;
13951;SDS011;39535;52.192;9.886;2024-01-15T01:33:43;13.23;;;5.47;;
13951;SDS011;39535;52.192;9.886;2024-01-15T01:36:10;6.73;;;4.77;;
13951;SDS011;39535;52.192;9.886;2024-01-15T01:38:36;6.13;;;5.03;;
13951;SDS011;39535;52.192;9.886;2024-01-15T01:41:03;14.07;;;6.20;;
13951;SDS011;39535;52.192;9.886;2024-01-15T01:43:31;6.07;;;4.50;;
13951;SDS011;39535;52.192;9.886;2024-01-15T01:45:57;6.07;;;5.07;;
13951;SDS011;39535;52.192;9.886;2024-01-15T01:48:24;8.17;;;4.60;;
13951;SDS011;39535;52.192;9.886;2024-01-15T01:50:51;11.73;;;5.30;;
13951;SDS011;39535;52.192;9.886;2024-01-15T01:53:18;11.20;;;5.63;;
13951;SDS011;39535;52.192;9.886;2024-01-15T01:55:45;8.70;;;4.97;;
13951;SDS011;39535;52.192;9.886;2024-01-15T01:58:13;6.20;;;4.97;;
13951;SDS011;39535;52.192;9.886;2024-01-15T02:00:42;5.70;;;4.60;;
13951;SDS011;39535;52.192;9.886;2024-01-15T02:03:09;10.10;;;4.53;;
13951;SDS011;39535;52.192;9.886;2024-01-15T02:05:35;6.73;;;4.37;;
13951;SDS011;39535;52.192;9.886;2024-01-15T02:08:03;5.50;;;3.70;;
13951;SDS011;39535;52.192;9.886;2024-01-15T02:10:29;8.13;;;4.17;;
13951;SDS011;39535;52.192;9.886;2024-01-15T02:12:55;6.30;;;4.07;;
13951;SDS011;39535;52.192;9.886;2024-01-15T02:15:21;7.03;;;3.67;;
13951;SDS011;39535;52.192;9.886;2024-01-15T02:17:58;5.57;;;4.07;;
13951;SDS011;39535;52.192;9.886;2024-01-15T02:20:25;6.67;;;3.63;;
13951;SDS011;39535;52.192;9.886;2024-01-15T02:22:52;6.20;;;3.57;;
13951;SDS011;39535;52.192;9.886;2024-01-15T02:25:20;6.83;;;3.70;;
13951;SDS011;39535;52.192;9.886;2024-01-15T02:27:47;6.17;;;3.93;;
13951;SDS011;39535;52.192;9.886;2024-01-15T02:30:15;7.33;;;4.07;;
13951;SDS011;39535;52.192;9.886;2024-01-15T02:32:41;6.37;;;3.57;;
13951;SDS011;39535;52.192;9.886;2024-01-15T02:35:08;4.13;;;3.63;;
13951;SDS011;39535;52.192;9.886;2024-01-15T02:37:34;8.20;;;3.63;;
13951;SDS011;39535;52.192;9.886;2024-01-15T02:40:01;14.27;;;4.50;;
13951;SDS011;39535;52.192;9.886;2024-01-15T02:42:29;10.57;;;3.80;;
13951;SDS011;39535;52.192;9.886;2024-01-15T02:44:56;5.00;;;3.20;;
13951;SDS011;39535;52.192;9.886;2024-01-15T02:47:24;4.13;;;2.73;;
13951;SDS011;39535;52.192;9.886;2024-01-15T02:49:50;11.13;;;3.13;;
13951;SDS011;39535;52.192;9.886;2024-01-15T02:52:19;4.80;;;3.07;;
13951;SDS011;39535;52.192;9.886;2024-01-15T02:54:46;6.00;;;3.23;;
13951;SDS011;39535;52.192;9.886;2024-01-15T02:57:12;6.87;;;2.83;;
13951;SDS011;39535;52.192;9.886;2024-01-15T02:59:40;5.53;;;3.00;;
13951;SDS011;39535;52.192;9.886;2024-01-15T03:02:06;6.20;;;2.50;;
13951;SDS011;39535;52.192;9.886;2024-01-15T03:04:33;6.27;;;2.77;;
13951;SDS011;39535;52.192;9.886;2024-01-15T03:06:59;7.47;;;3.37;;
13951;SDS011;39535;52.192;9.886;2024-01-15T03:09:25;4.03;;;2.57;;
13951;SDS011;39535;52.192;9.886;2024-01-15T03:11:51;5.23;;;2.47;;
13951;SDS011;39535;52.192;9.886;2024-01-15T03:14:18;4.63;;;1.93;;
13951;SDS011;39535;52.192;9.886;2024-01-15T03:16:46;5.80;;;2.83;;
13951;SDS011;39535;52.192;9.886;2024-01-15T03:19:13;8.67;;;3.07;;
13951;SDS011;39535;52.192;9.886;2024-01-15T03:21:39;7.63;;;3.13;;
13951;SDS011;39535;52.192;9.886;2024-01-15T03:24:05;6.20;;;2.77;;
13951;SDS011;39535;52.192;9.886;2024-01-15T03:26:32;5.07;;;2.30;;
13951;SDS011;39535;52.192;9.886;2024-01-15T03:29:01;8.37;;;2.97;;
13951;SDS011;39535;52.192;9.886;2024-01-15T03:31:27;5.27;;;2.33;;
13951;SDS011;39535;52.192;9.886;2024-01-15T03:33:55;4.43;;;2.67;;
13951;SDS011;39535;52.192;9.886;2024-01-15T03:36:22;7.97;;;2.40;;
13951;SDS011;39535;52.192;9.886;2024-01-15T03:38:48;9.40;;;3.00;;
13951;SDS011;39535;52.192;9.886;2024-01-15T03:41:14;8.40;;;3.70;;
13951;SDS011;39535;52.192;9.886;2024-01-15T03:43:41;12.10;;;2.93;;
13951;SDS011;39535;52.192;9.886;2024-01-15T03:46:07;5.93;;;3.43;;
13951;SDS011;39535;52.192;9.886;2024-01-15T03:48:33;7.50;;;2.77;;
13951;SDS011;39535;52.192;9.886;2024-01-15T03:51:01;5.17;;;3.00;;
13951;SDS011;39535;52.192;9.886;2024-01-15T03:53:28;6.67;;;2.63;;
13951;SDS011;39535;52.192;9.886;2024-01-15T03:55:54;3.77;;;2.57;;
13951;SDS011;39535;52.192;9.886;2024-01-15T03:58:22;6.40;;;3.13;;
13951;SDS011;39535;52.192;9.886;2024-01-15T04:00:48;8.80;;;2.40;;
13951;SDS011;39535;52.192;9.886;2024-01-15T04:03:14;7.47;;;2.77;;
13951;SDS011;39535;52.192;9.886;2024-01-15T04:05:41;4.20;;;2.40;;
13951;SDS011;39535;52.192;9.886;2024-01-15T04:08:08;6.03;;;2.40;;
13951;SDS011;39535;52.192;9.886;2024-01-15T04:10:35;5.23;;;2.80;;
13951;SDS011;39535;52.192;9.886;2024-01-15T04:13:01;6.40;;;2.60;;
13951;SDS011;39535;52.192;9.886;2024-01-15T04:15:28;8.97;;;2.93;;
13951;SDS011;39535;52.192;9.886;2024-01-15T04:17:55;4.60;;;2.60;;
13951;SDS011;39535;52.192;9.886;2024-01-15T04:20:21;8.03;;;2.40;;
13951;SDS011;39535;52.192;9.886;2024-01-15T04:22:47;11.03;;;2.70;;
13951;SDS011;39535;52.192;9.886;2024-01-15T04:25:15;7.87;;;2.67;;
13951;SDS011;39535;52.192;9.886;2024-01-15T04:27:41;9.93;;;4.70;;
13951;SDS011;39535;52.192;9.886;2024-01-15T04:30:08;6.80;;;2.90;;
13951;SDS011;39535;52.192;9.886;2024-01-15T04:32:35;9.43;;;2.90;;
13951;SDS011;39535;52.192;9.886;2024-01-15T04:35:01;8.63;;;2.27;;
13951;SDS011;39535;52.192;9.886;2024-01-15T04:37:28;5.80;;;2.60;;
13951;SDS011;39535;52.192;9.886;2024-01-15T04:39:54;7.60;;;2.40;;
13951;SDS011;39535;52.192;9.886;2024-01-15T04:42:23;4.03;;;2.50;;
13951;SDS011;39535;52.192;9.886;2024-01-15T04:44:50;5.73;;;2.60;;
13951;SDS011;39535;52.192;9.886;2024-01-15T04:47:16;5.27;;;2.57;;
13951;SDS011;39535;52.192;9.886;2024-01-15T04:49:43;6.73;;;2.67;;
13951;SDS011;39535;52.192;9.886;2024-01-15T04:52:09;4.63;;;2.90;;
13951;SDS011;39535;52.192;9.886;2024-01-15T04:54:36;5.27;;;1.90;;
13951;SDS011;39535;52.192;9.886;2024-01-15T04:57:02;5.00;;;3.30;;
13951;SDS011;39535;52.192;9.886;2024-01-15T04:59:30;4.60;;;2.13;;
13951;SDS011;39535;52.192;9.886;2024-01-15T05:01:59;5.23;;;2.33;;
13951;SDS011;39535;52.192;9.886;2024-01-15T05:04:26;4.03;;;2.43;;
13951;SDS011;39535;52.192;9.886;2024-01-15T05:06:52;5.40;;;3.17;;
13951;SDS011;39535;52.192;9.886;2024-01-15T05:09:19;8.50;;;2.47;;
13951;SDS011;39535;52.192;9.886;2024-01-15T05:11:45;7.90;;;2.73;;
13951;SDS011;39535;52.192;9.886;2024-01-15T05:14:12;5.17;;;2.30;;
13951;SDS011;39535;52.192;9.886;2024-01-15T05:16:39;3.40;;;2.17;;
13951;SDS011;39535;52.192;9.886;2024-01-15T05:19:12;7.00;;;2.40;;
13951;SDS011;39535;52.192;9.886;2024-01-15T05:21:38;4.50;;;2.40;;
13951;SDS011;39535;52.192;9.886;2024-01-15T05:24:05;4.00;;;2.67;;
13951;SDS011;39535;52.192;9.886;2024-01-15T05:26:31;5.50;;;2.50;;
13951;SDS011;39535;52.192;9.886;2024-01-15T05:28:57;4.53;;;2.70;;
13951;SDS011;39535;52.192;9.886;2024-01-15T05:31:24;6.63;;;3.20;;
13951;SDS011;39535;52.192;9.886;2024-01-15T05:33:52;6.73;;;3.67;;
13951;SDS011;39535;52.192;9.886;2024-01-15T05:36:18;5.77;;;3.40;;
13951;SDS011;39535;52.192;9.886;2024-01-15T05:38:44;7.77;;;4.10;;
13951;SDS011;39535;52.192;9.886;2024-01-15T05:41:11;8.13;;;3.97;;
13951;SDS011;39535;52.192;9.886;2024-01-15T05:43:38;6.90;;;4.63;;
13951;SDS011;39535;52.192;9.886;2024-01-15T05:46:04;6.17;;;3.83;;
13951;SDS011;39535;52.192;9.886;2024-01-15T05:48:30;8.03;;;4.40;;
13951;SDS011;39535;52.192;9.886;2024-01-15T05:50:58;8.67;;;4.10;;
13951;SDS011;39535;52.192;9.886;2024-01-15T05:53:27;5.03;;;3.87;;
13951;SDS011;39535;52.192;9.886;2024-01-15T05:55:54;4.97;;;3.60;;
13951;SDS011;39535;52.192;9.886;2024-01-15T05:58:21;7.10;;;3.90;;
13951;SDS011;39535;52.192;9.886;2024-01-15T06:00:48;8.13;;;4.40;;
13951;SDS011;39535;52.192;9.886;2024-01-15T06:03:15;4.80;;;3.73;;
13951;SDS011;39535;52.192;9.886;2024-01-15T06:05:41;5.13;;;4.10;;
13951;SDS011;39535;52.192;9.886;2024-01-15T06:08:09;8.53;;;3.83;;
13951;SDS011;39535;52.192;9.886;2024-01-15T06:10:35;7.33;;;3.60;;
13951;SDS011;39535;52.192;9.886;2024-01-15T06:13:01;7.37;;;3.40;;
13951;SDS011;39535;52.192;9.886;2024-01-15T06:15:28;6.57;;;3.27;;
13951;SDS011;39535;52.192;9.886;2024-01-15T06:17:54;5.17;;;3.90;;
13951;SDS011;39535;52.192;9.886;2024-01-15T06:20:20;5.03;;;3.30;;
13951;SDS011;39535;52.192;9.886;2024-01-15T06:22:47;5.40;;;3.83;;
13951;SDS011;39535;52.192;9.886;2024-01-15T06:25:15;4.07;;;3.63;;
13951;SDS011;39535;52.192;9.886;2024-01-15T06:27:41;6.10;;;3.80;;
13951;SDS011;39535;52.192;9.886;2024-01-15T06:30:08;6.60;;;3.93;;
13951;SDS011;39535;52.192;9.886;2024-01-15T06:32:35;6.40;;;3.90;;
13951;SDS011;39535;52.192;9.886;2024-01-15T06:35:01;8.93;;;3.57;;
13951;SDS011;39535;52.192;9.886;2024-01-15T06:37:27;6.00;;;3.47;;
13951;SDS011;39535;52.192;9.886;2024-01-15T06:39:54;4.87;;;3.57;;
13951;SDS011;39535;52.192;9.886;2024-01-15T06:42:21;7.23;;;3.80;;
13951;SDS011;39535;52.192;9.886;2024-01-15T06:44:48;5.70;;;4.47;;
13951;SDS011;39535;52.192;9.886;2024-01-15T06:47:15;5.00;;;3.43;;
13951;SDS011;39535;52.192;9.886;2024-01-15T06:49:42;6.87;;;3.57;;
13951;SDS011;39535;52.192;9.886;2024-01-15T06:52:09;5.83;;;3.27;;
13951;SDS011;39535;52.192;9.886;2024-01-15T06:54:36;8.37;;;3.40;;
13951;SDS011;39535;52.192;9.886;2024-01-15T06:57:02;4.73;;;2.97;;
13951;SDS011;39535;52.192;9.886;2024-01-15T06:59:30;8.60;;;3.43;;
13951;SDS011;39535;52.192;9.886;2024-01-15T07:01:57;5.80;;;3.07;;
13951;SDS011;39535;52.192;9.886;2024-01-15T07:04:24;5.37;;;3.20;;
13951;SDS011;39535;52.192;9.886;2024-01-15T07:06:50;7.40;;;3.37;;
13951;SDS011;39535;52.192;9.886;2024-01-15T07:09:16;5.83;;;2.70;;
13951;SDS011;39535;52.192;9.886;2024-01-15T07:11:44;7.73;;;3.20;;
13951;SDS011;39535;52.192;9.886;2024-01-15T07:14:11;3.57;;;2.77;;
13951;SDS011;39535;52.192;9.886;2024-01-15T07:16:39;4.20;;;2.73;;
13951;SDS011;39535;52.192;9.886;2024-01-15T07:19:05;4.40;;;2.97;;
13951;SDS011;39535;52.192;9.886;2024-01-15T07:21:31;5.63;;;2.90;;
13951;SDS011;39535;52.192;9.886;2024-01-15T07:23:58;4.47;;;3.33;;
13951;SDS011;39535;52.192;9.886;2024-01-15T07:26:24;6.60;;;4.00;;
13951;SDS011;39535;52.192;9.886;2024-01-15T07:28:51;5.03;;;3.20;;
13951;SDS011;39535;52.192;9.886;2024-01-15T07:31:17;3.17;;;2.80;;
13951;SDS011;39535;52.192;9.886;2024-01-15T07:33:47;7.33;;;3.70;;
13951;SDS011;39535;52.192;9.886;2024-01-15T07:36:14;5.57;;;3.60;;
13951;SDS011;39535;52.192;9.886;2024-01-15T07:38:40;6.83;;;4.00;;
13951;SDS011;39535;52.192;9.886;2024-01-15T07:41:08;5.00;;;3.77;;
13951;SDS011;39535;52.192;9.886;2024-01-15T07:43:34;4.70;;;3.60;;
13951;SDS011;39535;52.192;9.886;2024-01-15T07:46:02;4.80;;;3.77;;
13951;SDS011;39535;52.192;9.886;2024-01-15T07:48:28;3.73;;;3.13;;
13951;SDS011;39535;52.192;9.886;2024-01-15T07:50:56;4.13;;;3.30;;
13951;SDS011;39535;52.192;9.886;2024-01-15T07:53:23;6.07;;;3.57;;
13951;SDS011;39535;52.192;9.886;2024-01-15T07:55:50;3.87;;;3.23;;
13951;SDS011;39535;52.192;9.886;2024-01-15T07:58:16;3.63;;;3.30;;
13951;SDS011;39535;52.192;9.886;2024-01-15T08:00:42;4.37;;;3.30;;
13951;SDS011;39535;52.192;9.886;2024-01-15T08:03:09;6.90;;;3.57;;
13951;SDS011;39535;52.192;9.886;2024-01-15T08:05:36;6.73;;;2.93;;
13951;SDS011;39535;52.192;9.886;2024-01-15T08:08:04;4.90;;;4.03;;
13951;SDS011;39535;52.192;9.886;2024-01-15T08:10:31;4.07;;;2.90;;
13951;SDS011;39535;52.192;9.886;2024-01-15T08:12:57;4.43;;;2.90;;
13951;SDS011;39535;52.192;9.886;2024-01-15T08:15:24;14.40;;;3.63;;
13951;SDS011;39535;52.192;9.886;2024-01-15T08:17:50;5.20;;;2.93;;
13951;SDS011;39535;52.192;9.886;2024-01-15T08:20:16;3.60;;;2.50;;
13951;SDS011;39535;52.192;9.886;2024-01-15T08:22:43;3.27;;;2.17;;
13951;SDS011;39535;52.192;9.886;2024-01-15T08:25:10;4.93;;;2.50;;
13951;SDS011;39535;52.192;9.886;2024-01-15T08:27:38;3.73;;;3.40;;
13951;SDS011;39535;52.192;9.886;2024-01-15T08:30:04;5.10;;;2.60;;
13951;SDS011;39535;52.192;9.886;2024-01-15T08:32:32;3.73;;;2.53;;
13951;SDS011;39535;52.192;9.886;2024-01-15T08:34:58;9.13;;;2.93;;
13951;SDS011;39535;52.192;9.886;2024-01-15T08:37:24;3.30;;;2.40;;
13951;SDS011;39535;52.192;9.886;2024-01-15T08:39:51;2.77;;;2.43;;
13951;SDS011;39535;52.192;9.886;2024-01-15T08:42:18;3.43;;;2.20;;
13951;SDS011;39535;52.192;9.886;2024-01-15T08:44:44;5.50;;;2.60;;
13951;SDS011;39535;52.192;9.886;2024-01-15T08:47:12;6.80;;;2.23;;
13951;SDS011;39535;52.192;9.886;2024-01-15T08:49:38;4.47;;;2.20;;
13951;SDS011;39535;52.192;9.886;2024-01-15T08:52:05;5.70;;;2.50;;
13951;SDS011;39535;52.192;9.886;2024-01-15T08:54:32;2.30;;;2.10;;
13951;SDS011;39535;52.192;9.886;2024-01-15T08:56:58;4.47;;;2.30;;
13951;SDS011;39535;52.192;9.886;2024-01-15T08:59:28;3.67;;;2.97;;
13951;SDS011;39535;52.192;9.886;2024-01-15T09:01:54;4.40;;;2.40;;
13951;SDS011;39535;52.192;9.886;2024-01-15T09:04:22;4.00;;;2.85;;
13951;SDS011;39535;52.192;9.886;2024-01-15T09:06:48;5.77;;;3.07;;
13951;SDS011;39535;52.192;9.886;2024-01-15T09:09:16;2.80;;;2.00;;
13951;SDS011;39535;52.192;9.886;2024-01-15T09:11:42;6.93;;;2.83;;
13951;SDS011;39535;52.192;9.886;2024-01-15T09:14:08;3.73;;;1.87;;
13951;SDS011;39535;52.192;9.886;2024-01-15T09:16:36;3.77;;;2.47;;
13951;SDS011;39535;52.192;9.886;2024-01-15T09:19:02;2.37;;;1.50;;
13951;SDS011;39535;52.192;9.886;2024-01-15T09:21:29;3.70;;;1.93;;
13951;SDS011;39535;52.192;9.886;2024-01-15T09:23:55;5.00;;;2.07;;
13951;SDS011;39535;52.192;9.886;2024-01-15T09:26:22;5.63;;;2.27;;
13951;SDS011;39535;52.192;9.886;2024-01-15T09:28:48;5.67;;;1.97;;
13951;SDS011;39535;52.192;9.886;2024-01-15T09:31:15;6.77;;;2.90;;
13951;SDS011;39535;52.192;9.886;2024-01-15T09:33:43;2.77;;;2.20;;
13951;SDS011;39535;52.192;9.886;2024-01-15T09:36:10;2.77;;;1.90;;
13951;SDS011;39535;52.192;9.886;2024-01-15T09:38:36;4.17;;;2.40;;
13951;SDS011;39535;52.192;9.886;2024-01-15T09:41:02;6.73;;;2.80;;
13951;SDS011;39535;52.192;9.886;2024-01-15T09:43:29;6.80;;;2.40;;
13951;SDS011;39535;52.192;9.886;2024-01-15T09:45:55;7.63;;;2.73;;
13951;SDS011;39535;52.192;9.886;2024-01-15T09:48:23;6.00;;;2.90;;
13951;SDS011;39535;52.192;9.886;2024-01-15T09:50:51;6.40;;;3.00;;
13951;SDS011;39535;52.192;9.886;2024-01-15T09:53:18;5.13;;;1.80;;
13951;SDS011;39535;52.192;9.886;2024-01-15T09:55:46;4.77;;;2.27;;
13951;SDS011;39535;52.192;9.886;2024-01-15T09:58:13;3.93;;;1.90;;
13951;SDS011;39535;52.192;9.886;2024-01-15T10:00:39;6.20;;;2.17;;
13951;SDS011;39535;52.192;9.886;2024-01-15T10:03:08;3.70;;;1.73;;
13951;SDS011;39535;52.192;9.886;2024-01-15T10:05:36;4.33;;;1.80;;
13951;SDS011;39535;52.192;9.886;2024-01-15T10:08:04;6.87;;;1.60;;
13951;SDS011;39535;52.192;9.886;2024-01-15T10:10:31;2.87;;;2.43;;
13951;SDS011;39535;52.192;9.886;2024-01-15T10:12:57;3.13;;;1.90;;
13951;SDS011;39535;52.192;9.886;2024-01-15T10:15:25;4.67;;;2.23;;
13951;SDS011;39535;52.192;9.886;2024-01-15T10:17:52;3.77;;;1.83;;
13951;SDS011;39535;52.192;9.886;2024-01-15T10:20:18;3.33;;;1.90;;
13951;SDS011;39535;52.192;9.886;2024-01-15T10:22:47;3.87;;;1.63;;
13951;SDS011;39535;52.192;9.886;2024-01-15T10:25:15;2.07;;;1.87;;
13951;SDS011;39535;52.192;9.886;2024-01-15T10:27:47;3.10;;;2.80;;
13951;SDS011;39535;52.192;9.886;2024-01-15T10:30:25;5.70;;;2.63;;
13951;SDS011;39535;52.192;9.886;2024-01-15T10:32:57;6.77;;;2.93;;
13951;SDS011;39535;52.192;9.886;2024-01-15T10:35:25;4.93;;;2.67;;
13951;SDS011;39535;52.192;9.886;2024-01-15T10:37:52;3.87;;;1.97;;
13951;SDS011;39535;52.192;9.886;2024-01-15T10:40:20;6.33;;;1.90;;
13951;SDS011;39535;52.192;9.886;2024-01-15T10:42:47;3.03;;;2.03;;
13951;SDS011;39535;52.192;9.886;2024-01-15T10:45:14;2.80;;;1.80;;
13951;SDS011;39535;52.192;9.886;2024-01-15T10:47:40;4.33;;;1.60;;
13951;SDS011;39535;52.192;9.886;2024-01-15T10:50:07;3.60;;;1.20;;
13951;SDS011;39535;52.192;9.886;2024-01-15T10:52:35;4.80;;;1.60;;
13951;SDS011;39535;52.192;9.886;2024-01-15T10:55:02;4.30;;;1.83;;
13951;SDS011;39535;52.192;9.886;2024-01-15T10:57:30;4.33;;;1.37;;
13951;SDS011;39535;52.192;9.886;2024-01-15T10:59:57;2.40;;;1.40;;
13951;SDS011;39535;52.192;9.886;2024-01-15T11:02:24;2.67;;;1.80;;
13951;SDS011;39535;52.192;9.886;2024-01-15T11:04:51;3.23;;;1.73;;
13951;SDS011;39535;52.192;9.886;2024-01-15T11:07:24;3.03;;;1.80;;
13951;SDS011;39535;52.192;9.886;2024-01-15T11:09:50;2.57;;;1.70;;
13951;SDS011;39535;52.192;9.886;2024-01-15T11:12:17;2.40;;;1.40;;
13951;SDS011;39535;52.192;9.886;2024-01-15T11:14:46;2.03;;;1.60;;
13951;SDS011;39535;52.192;9.886;2024-01-15T11:17:14;4.60;;;1.87;;
13951;SDS011;39535;52.192;9.886;2024-01-15T11:19:45;3.27;;;1.73;;
13951;SDS011;39535;52.192;9.886;2024-01-15T11:25:12;2.30;;;1.53;;
13951;SDS011;39535;52.192;9.886;2024-01-15T11:27:40;4.43;;;2.63;;
13951;SDS011;39535;52.192;9.886;2024-01-15T11:30:09;3.83;;;3.53;;
13951;SDS011;39535;52.192;9.886;2024-01-15T11:32:37;3.80;;;1.97;;
13951;SDS011;39535;52.192;9.886;2024-01-15T11:35:18;3.57;;;2.40;;
13951;SDS011;39535;52.192;9.886;2024-01-15T11:37:57;6.23;;;2.33;;
13951;SDS011;39535;52.192;9.886;2024-01-15T11:40:36;2.23;;;1.40;;
13951;SDS011;39535;52.192;9.886;2024-01-15T11:43:04;7.37;;;2.17;;
13951;SDS011;39535;52.192;9.886;2024-01-15T11:45:31;2.43;;;1.40;;
13951;SDS011;39535;52.192;9.886;2024-01-15T11:48:08;2.93;;;1.77;;
13951;SDS011;39535;52.192;9.886;2024-01-15T11:50:38;3.67;;;1.67;;
13951;SDS011;39535;52.192;9.886;2024-01-15T11:53:08;2.63;;;1.80;;
13951;SDS011;39535;52.192;9.886;2024-01-15T11:55:41;4.23;;;2.10;;
13951;SDS011;39535;52.192;9.886;2024-01-15T11:58:10;4.47;;;1.80;;
13951;SDS011;39535;52.192;9.886;2024-01-15T12:00:39;3.63;;;2.00;;
13951;SDS011;39535;52.192;9.886;2024-01-15T12:03:06;6.17;;;1.60;;
13951;SDS011;39535;52.192;9.886;2024-01-15T12:05:32;3.70;;;1.70;;
13951;SDS011;39535;52.192;9.886;2024-01-15T12:08:00;8.20;;;2.20;;
13951;SDS011;39535;52.192;9.886;2024-01-15T12:10:27;4.57;;;2.47;;
13951;SDS011;39535;52.192;9.886;2024-01-15T12:12:57;6.93;;;2.17;;
13951;SDS011;39535;52.192;9.886;2024-01-15T12:15:24;7.57;;;2.63;;
13951;SDS011;39535;52.192;9.886;2024-01-15T12:17:52;4.87;;;1.90;;
13951;SDS011;39535;52.192;9.886;2024-01-15T12:20:18;5.00;;;1.87;;
13951;SDS011;39535;52.192;9.886;2024-01-15T12:22:45;5.13;;;2.03;;
13951;SDS011;39535;52.192;9.886;2024-01-15T12:25:13;4.77;;;1.60;;
13951;SDS011;39535;52.192;9.886;2024-01-15T12:27:39;5.23;;;1.60;;
13951;SDS011;39535;52.192;9.886;2024-01-15T12:30:06;4.40;;;2.10;;
13951;SDS011;39535;52.192;9.886;2024-01-15T12:32:36;4.47;;;1.70;;
13951;SDS011;39535;52.192;9.886;2024-01-15T12:35:02;5.10;;;1.73;;
13951;SDS011;39535;52.192;9.886;2024-01-15T12:37:29;3.40;;;1.97;;
13951;SDS011;39535;52.192;9.886;2024-01-15T12:39:56;3.37;;;1.90;;
13951;SDS011;39535;52.192;9.886;2024-01-15T12:42:27;5.70;;;1.70;;
13951;SDS011;39535;52.192;9.886;2024-01-15T12:44:54;3.87;;;1.50;;
13951;SDS011;39535;52.192;9.886;2024-01-15T12:47:21;6.50;;;1.70;;
13951;SDS011;39535;52.192;9.886;2024-01-15T12:49:48;3.03;;;1.43;;
13951;SDS011;39535;52.192;9.886;2024-01-15T12:52:18;6.90;;;1.90;;
13951;SDS011;39535;52.192;9.886;2024-01-15T12:54:46;3.17;;;2.00;;
13951;SDS011;39535;52.192;9.886;2024-01-15T12:57:12;8.00;;;2.00;;
13951;SDS011;39535;52.192;9.886;2024-01-15T12:59:40;6.90;;;2.73;;
13951;SDS011;39535;52.192;9.886;2024-01-15T13:02:06;4.47;;;1.97;;
13951;SDS011;39535;52.192;9.886;2024-01-15T13:04:33;5.40;;;1.87;;
13951;SDS011;39535;52.192;9.886;2024-01-15T13:06:59;4.90;;;1.63;;
13951;SDS011;39535;52.192;9.886;2024-01-15T13:09:25;2.93;;;1.70;;
13951;SDS011;39535;52.192;9.886;2024-01-15T13:11:52;5.50;;;2.10;;
13951;SDS011;39535;52.192;9.886;2024-01-15T13:14:19;3.83;;;1.60;;
13951;SDS011;39535;52.192;9.886;2024-01-15T13:16:46;3.40;;;1.60;;
13951;SDS011;39535;52.192;9.886;2024-01-15T13:19:13;6.70;;;1.37;;
13951;SDS011;39535;52.192;9.886;2024-01-15T13:21:39;7.60;;;2.27;;
13951;SDS011;39535;52.192;9.886;2024-01-15T13:24:06;6.07;;;2.07;;
13951;SDS011;39535;52.192;9.886;2024-01-15T13:26:34;4.50;;;1.53;;
13951;SDS011;39535;52.192;9.886;2024-01-15T13:29:01;2.33;;;1.47;;
13951;SDS011;39535;52.192;9.886;2024-01-15T13:31:28;3.13;;;1.70;;
13951;SDS011;39535;52.192;9.886;2024-01-15T13:33:56;2.10;;;1.33;;
13951;SDS011;39535;52.192;9.886;2024-01-15T13:36:23;4.13;;;1.13;;
13951;SDS011;39535;52.192;9.886;2024-01-15T13:38:49;5.03;;;1.83;;
13951;SDS011;39535;52.192;9.886;2024-01-15T13:41:16;5.57;;;1.33;;
13951;SDS011;39535;52.192;9.886;2024-01-15T13:43:43;3.93;;;1.73;;
13951;SDS011;39535;52.192;9.886;2024-01-15T13:46:10;4.83;;;1.33;;
13951;SDS011;39535;52.192;9.886;2024-01-15T13:48:36;3.73;;;1.63;;
13951;SDS011;39535;52.192;9.886;2024-01-15T13:51:04;2.80;;;1.30;;
13951;SDS011;39535;52.192;9.886;2024-01-15T13:53:31;3.93;;;1.33;;
13951;SDS011;39535;52.192;9.886;2024-01-15T13:55:57;2.87;;;1.60;;
13951;SDS011;39535;52.192;9.886;2024-01-15T13:58:24;5.57;;;1.50;;
13951;SDS011;39535;52.192;9.886;2024-01-15T14:00:50;2.37;;;1.57;;
13951;SDS011;39535;52.192;9.886;2024-01-15T14:03:17;1.60;;;1.50;;
13951;SDS011;39535;52.192;9.886;2024-01-15T14:05:44;3.03;;;1.63;;
13951;SDS011;39535;52.192;9.886;2024-01-15T14:08:11;2.90;;;1.27;;
13951;SDS011;39535;52.192;9.886;2024-01-15T14:10:38;3.43;;;1.80;;
13951;SDS011;39535;52.192;9.886;2024-01-15T14:13:04;4.73;;;1.83;;
13951;SDS011;39535;52.192;9.886;2024-01-15T14:15:30;4.60;;;1.50;;
13951;SDS011;39535;52.192;9.886;2024-01-15T14:17:57;5.07;;;1.47;;
13951;SDS011;39535;52.192;9.886;2024-01-15T14:20:24;5.07;;;1.90;;
13951;SDS011;39535;52.192;9.886;2024-01-15T14:22:50;3.43;;;1.47;;
13951;SDS011;39535;52.192;9.886;2024-01-15T14:25:18;3.53;;;1.43;;
13951;SDS011;39535;52.192;9.886;2024-01-15T14:27:44;5.60;;;2.17;;
13951;SDS011;39535;52.192;9.886;2024-01-15T14:30:11;4.20;;;1.90;;
13951;SDS011;39535;52.192;9.886;2024-01-15T14:32:40;4.70;;;1.90;;
13951;SDS011;39535;52.192;9.886;2024-01-15T14:35:07;3.07;;;2.03;;
13951;SDS011;39535;52.192;9.886;2024-01-15T14:37:35;3.07;;;1.90;;
13951;SDS011;39535;52.192;9.886;2024-01-15T14:40:02;3.00;;;1.60;;
13951;SDS011;39535;52.192;9.886;2024-01-15T14:42:31;2.17;;;1.90;;
13951;SDS011;39535;52.192;9.886;2024-01-15T14:44:57;2.53;;;1.70;;
13951;SDS011;39535;52.192;9.886;2024-01-15T14:47:24;2.83;;;1.63;;